Date,TemperatureHighF,TemperatureAvgF,TemperatureLowF,DewpointHighF,DewpointAvgF,DewpointLowF,HumidityHigh,HumidityAvg,HumidityLow,PressureMaxIn,PressureMinIn,WindSpeedMaxMPH,WindSpeedAvgMPH,GustSpeedMaxMPH,PrecipitationSumIn
2013-1-19,40,18,18,26,-24,-100,78,42,52,30.05,29.79,5,-361,8,0.01
2013-1-20,45,18,22,34,-38,-100,82,27,38,29.83,29.41,12,-465,28,0.01
2013-1-21,26,20,11,18,7,-1,92,59,42,29.96,29.73,7,1,17,0.00
2013-1-22,22,15,-3,17,7,-7,92,73,38,29.97,29.68,10,1,18,0.03
2013-1-23,8,1,-6,-3,-11,-14,85,60,39,30.07,29.95,8,2,16,0.00
2013-1-24,13,3,-6,-5,-12,-16,64,51,36,30.16,30.00,20,4,26,0.00
2013-1-25,18,10,3,4,-5,-8,67,52,37,30.23,30.00,19,3,25,0.00
2013-1-26,19,13,8,6,1,-6,78,60,39,30.14,29.95,13,3,27,0.00
2013-1-27,24,15,10,4,-1,-6,72,51,31,30.39,30.13,15,3,23,0.00
2013-1-28,24,17,9,18,8,-4,91,69,41,30.39,29.98,2,0,6,0.00
2013-1-29,34,26,12,31,23,10,95,86,73,30.14,29.99,3,0,5,0.29
2013-1-30,37,34,32,37,33,31,98,97,95,30.06,29.34,3,0,7,0.37
2013-1-31,55,40,28,55,30,10,99,71,46,29.43,28.79,17,4,28,0.98
2013-2-1,28,23,16,19,12,7,81,61,48,29.98,29.42,10,2,18,0.00
2013-2-2,25,19,11,16,9,4,82,66,49,30.12,29.95,6,1,11,0.00
2013-2-3,28,22,14,18,15,11,92,75,56,29.96,29.64,4,0,11,0.00
2013-2-4,28,22,17,17,8,1,84,57,34,29.81,29.62,12,2,23,0.00
2013-2-5,28,18,7,14,5,0,77,57,37,29.95,29.81,5,0,11,0.00
2013-2-6,36,25,16,22,14,-3,89,66,41,30.23,29.85,11,2,19,0.00
2013-2-7,23,17,9,1,-2,-4,63,44,32,30.47,30.22,10,1,15,0.00
2013-2-8,20,17,14,16,11,1,91,78,43,30.42,29.76,13,3,16,0.00
2013-2-9,20,16,13,19,12,3,100,81,58,30.15,29.70,20,6,29,0.00
2013-2-10,32,17,5,8,3,-2,87,57,32,30.36,30.16,6,1,15,0.18
2013-2-11,30,20,4,29,17,1,97,90,78,30.28,29.55,1,0,3,0.00
2013-2-12,42,36,28,33,29,26,97,77,60,29.75,29.53,18,2,23,0.32
2013-2-13,38,31,21,26,22,18,89,71,53,29.77,29.66,6,1,9,0.01
2013-2-14,40,29,22,25,21,19,95,75,48,29.90,29.63,11,1,12,0.00
2013-2-15,49,33,18,29,24,16,94,72,45,29.89,29.80,7,0,14,0.00
2013-2-16,38,32,25,28,21,5,88,65,43,29.88,29.68,11,2,15,0.00
2013-2-17,25,18,13,10,5,2,72,57,44,29.68,29.35,18,6,37,0.01
2013-2-18,27,19,11,3,0,-4,66,46,28,30.04,29.58,26,6,34,0.00
2013-2-19,40,28,14,33,15,-3,96,61,33,30.08,29.50,7,0,9,0.14
2013-2-20,35,29,24,34,22,15,97,76,65,29.65,29.44,10,2,25,0.03
2013-2-21,25,21,17,18,13,9,84,70,59,30.15,29.64,20,4,31,0.00
2013-2-22,39,30,16,25,20,13,92,70,47,30.34,30.16,13,1,17,0.00
2013-2-23,34,31,26,32,28,22,96,89,76,30.24,29.89,5,0,8,0.04
2013-2-24,35,32,30,33,31,29,96,95,92,29.89,29.68,2,0,5,0.18
2013-2-25,38,34,26,34,31,25,96,90,82,30.15,29.82,5,0,8,0.49
2013-2-26,39,35,31,34,32,30,97,88,78,30.26,30.11,3,0,8,0.11
2013-2-27,35,33,32,34,31,29,96,94,86,30.11,29.58,7,2,13,0.19
2013-2-28,43,36,30,37,33,29,97,91,78,29.57,29.46,4,0,8,0.54
2013-3-1,38,35,32,34,30,28,97,81,70,29.61,29.45,9,2,15,0.01
2013-3-2,39,34,29,29,27,25,88,77,64,29.60,29.55,9,2,16,0.00
2013-3-3,37,31,26,28,26,23,87,80,70,29.58,29.50,9,2,17,0.03
2013-3-4,34,29,26,26,23,21,81,76,68,29.70,29.51,16,5,27,0.00
2013-3-5,44,33,26,32,26,21,94,76,55,30.01,29.71,6,1,16,0.00
2013-3-6,36,34,32,33,30,27,94,85,73,30.12,30.01,11,2,19,0.02
2013-3-7,34,32,31,31,28,25,100,85,72,30.10,30.01,9,2,13,0.03
2013-3-8,43,34,28,31,28,22,94,77,50,30.14,29.95,3,0,9,0.16
2013-3-9,56,39,26,27,23,20,90,58,24,30.28,30.12,5,1,10,0.00
2013-3-10,47,34,20,31,26,18,95,74,48,30.33,30.20,7,1,11,0.00
2013-3-11,49,39,32,33,31,29,93,76,46,30.23,30.04,6,1,13,0.00
2013-3-12,48,41,34,48,40,31,99,96,90,30.04,29.62,5,0,11,1.05
2013-3-13,46,39,28,43,32,25,98,75,48,29.69,29.63,8,2,16,0.00
2013-3-14,33,28,19,26,18,6,93,67,49,29.76,29.60,13,3,21,0.00
2013-3-15,36,25,16,29,15,4,95,66,39,29.77,29.54,12,2,19,0.00
2013-3-16,32,27,20,23,16,11,82,64,45,29.80,29.61,7,1,14,0.05
2013-3-17,30,23,14,14,9,2,89,58,38,30.25,29.81,15,3,22,0.00
2013-3-18,36,23,8,23,6,1,81,50,27,30.38,30.17,5,1,9,0.00
2013-3-19,32,28,24,30,26,22,95,92,84,30.17,29.65,5,1,18,0.04
2013-3-20,34,16,24,23,-32,-100,94,42,60,29.68,29.59,10,-442,17,0.25
2013-3-21,39,14,9,20,-50,-100,94,24,36,29.69,29.51,6,-564,12,0.24
2013-3-22,37,14,26,22,-50,-100,76,23,44,29.62,29.53,5,-580,13,0.00
2013-3-23,38,14,30,24,-53,-100,73,22,47,29.68,29.54,14,-612,26,0.00
2013-3-24,42,15,34,25,-53,-100,69,21,49,29.76,29.67,17,-618,19,0.00
2013-3-25,43,15,21,29,-48,-100,95,28,54,29.71,29.48,10,-587,13,0.00
2013-3-26,47,18,34,30,-50,-100,85,19,35,29.70,29.50,9,-591,18,0.00
2013-3-27,47,18,37,30,-49,-100,60,20,46,29.80,29.67,14,-598,21,0.00
2013-3-28,46,3,44,32,-92,-100,61,4,60,29.93,29.80,4,-935,10,0.00
2013-3-29,50,20,44,38,-42,-100,75,27,55,29.96,29.90,8,-558,14,0.00
2013-3-30,52,20,43,29,-49,-100,57,15,28,30.01,29.93,8,-581,15,0.00
2013-3-31,48,4,40,27,-89,-100,61,4,37,30.02,29.71,5,-910,7,0.00
2013-4-1,53,25,37,43,-18,-100,97,52,67,29.69,29.41,7,-410,11,0.63
2013-4-2,31,10,26,15,-61,-100,53,17,42,29.79,29.66,8,-650,17,0.00
2013-4-3,41,22,25,16,-20,-100,59,34,30,30.04,29.79,15,-292,19,0.00
2013-4-4,54,33,27,26,-4,-100,81,34,24,30.18,29.89,8,-179,16,0.00
2013-4-5,55,40,30,30,26,21,87,60,31,29.89,29.61,14,3,22,0.00
2013-4-6,41,32,25,21,10,6,74,43,24,30.25,29.82,16,4,34,0.00
2013-4-7,57,40,23,37,24,16,83,55,31,30.24,29.86,14,3,20,0.00
2013-4-8,60,47,34,39,35,30,94,66,34,30.02,29.85,10,2,21,0.00
2013-4-9,59,48,39,48,42,34,97,81,53,29.98,29.80,13,1,16,0.23
2013-4-10,57,48,42,49,44,40,98,87,66,29.91,29.80,4,0,8,0.74
2013-4-11,45,43,39,44,32,18,96,69,39,30.05,29.79,9,1,13,0.01
2013-4-12,32,32,31,31,29,27,94,89,83,30.08,29.95,3,0,9,0.09
2013-4-13,51,47,42,40,38,36,87,72,60,29.81,29.71,1,0,6,0.43
2013-5-2,72,56,47,45,36,27,59,47,38,30.42,30.27,8,1,19,0.00
2013-5-3,67,58,43,46,43,38,91,59,43,30.45,30.29,7,1,11,0.00
2013-5-4,72,54,39,49,40,30,98,65,22,30.30,30.15,11,1,14,0.00
2013-5-5,70,51,33,41,37,31,96,64,30,30.25,30.12,6,1,10,0.00
2013-5-6,74,55,35,47,39,31,98,63,22,30.18,30.02,8,1,10,0.00
2013-5-7,80,61,41,53,45,38,98,64,23,30.07,29.97,7,1,12,0.00
2013-5-8,73,60,47,64,56,46,98,87,54,30.11,29.97,8,1,15,0.17
2013-5-9,67,60,56,59,58,55,98,91,73,29.97,29.80,3,0,9,0.45
2013-5-10,77,65,55,60,56,54,98,77,45,29.86,29.80,3,0,8,0.00
2013-5-11,66,61,56,63,59,56,98,94,83,29.80,29.58,7,2,12,0.23
2013-5-12,65,57,46,57,46,27,98,70,39,29.68,29.48,7,1,16,0.00
2013-5-13,52,45,40,36,31,29,83,59,45,29.96,29.68,13,2,18,0.00
2013-5-14,57,47,37,36,32,27,85,60,33,29.98,29.89,10,1,18,0.00
2013-5-15,65,46,30,50,38,29,96,78,35,29.96,29.58,11,1,18,0.12
2013-5-16,75,59,41,53,44,38,99,63,28,29.75,29.52,10,2,22,0.01
2013-5-17,65,53,43,44,41,37,94,66,39,30.14,29.76,11,2,19,0.00
2013-5-18,72,56,38,47,41,34,97,65,26,30.22,30.13,9,1,11,0.00
2013-5-19,67,53,41,56,49,40,98,86,57,30.26,30.11,9,1,13,0.41
2013-5-20,74,63,54,64,59,53,98,87,68,30.11,29.87,9,1,10,0.05
2013-5-21,72,58,51,64,56,49,98,93,74,30.02,29.82,6,0,15,0.58
2013-5-22,60,54,50,58,54,49,98,96,90,29.92,29.81,5,0,9,0.60
2013-5-23,68,60,51,67,59,51,99,97,91,29.84,29.68,6,0,10,0.33
2013-5-24,69,59,46,65,56,45,99,91,75,29.78,29.54,11,1,18,0.43
2013-5-25,47,44,35,45,42,34,95,92,84,29.78,29.67,10,2,19,1.08
2013-5-26,54,45,35,42,39,34,95,80,61,29.99,29.63,13,3,21,0.30
2013-5-27,67,52,34,43,38,33,98,66,30,30.11,29.99,8,1,17,0.00
2013-5-28,72,55,37,48,42,36,97,67,36,30.17,30.06,5,1,11,0.00
2013-5-29,57,54,49,57,53,46,99,95,87,30.09,29.93,2,0,7,0.29
2013-5-30,85,69,53,68,61,52,100,79,49,29.99,29.92,6,1,14,0.01
2013-6-11,59,56,55,56,55,54,98,95,89,29.56,29.51,1,0,3,1.28
2013-6-12,67,60,54,57,54,52,98,83,65,29.74,29.49,7,2,19,0.01
2013-6-13,67,58,51,58,54,50,97,87,63,29.73,29.62,4,0,7,0.22
2013-6-14,76,63,53,59,53,47,98,75,38,29.70,29.60,7,1,11,0.00
2013-6-15,74,61,50,54,44,-100,93,62,35,29.83,29.70,9,-33,15,0.00
2013-6-16,74,60,47,62,55,46,98,84,53,0.00,0.00,7,1,15,0.02
2013-6-17,74,28,54,63,-27,-100,99,42,62,0.00,0.00,9,-537,11,0.01
2013-6-18,59,5,59,56,-88,-100,91,7,88,0.00,0.00,0,-921,2,0.00
2013-6-19,71,51,50,50,35,-100,92,70,44,30.07,29.97,1,-95,3,0.00
2013-6-20,78,61,44,57,50,44,98,71,37,30.17,30.07,3,0,7,0.00
2013-6-21,81,65,50,62,55,48,98,73,38,30.15,30.10,5,0,8,0.00
2013-6-22,82,69,54,71,62,53,98,80,56,30.13,30.00,9,1,12,0.01
2013-6-23,87,71,64,77,69,63,98,92,69,30.05,29.86,13,0,19,0.51
2013-6-24,89,75,65,73,69,64,99,83,52,29.91,29.79,5,0,13,0.52
2013-6-25,88,75,66,74,68,64,97,82,54,29.86,29.65,11,1,16,0.17
2013-6-26,77,69,66,71,68,65,99,95,80,29.77,29.64,2,0,5,0.70
2013-6-27,72,66,62,69,65,62,99,96,87,29.76,29.69,2,0,10,0.03
2013-6-28,66,51,57,65,35,-100,99,82,96,29.69,29.41,4,-158,9,1.92
2013-6-29,81,68,63,72,60,-100,100,85,64,29.60,29.42,6,-40,17,0.33
2013-6-30,83,71,62,73,67,61,100,88,66,29.83,29.60,6,0,14,0.82
2013-7-1,78,71,65,72,69,65,99,93,76,29.97,29.84,2,0,6,0.20
2013-7-2,75,51,61,73,26,-100,99,72,87,30.12,29.96,5,-252,9,1.04
2013-7-3,65,25,61,65,-33,-100,99,41,98,30.11,30.03,1,-587,3,0.00
2013-7-4,90,47,72,78,-3,-100,95,42,59,30.12,29.96,4,-441,11,0.00
2013-7-5,91,80,68,76,72,68,99,79,52,30.05,29.93,6,1,10,0.01
2013-7-6,86,77,68,75,70,64,96,79,51,29.98,29.89,7,1,12,0.00
2013-7-7,87,76,66,77,69,65,98,82,56,29.93,29.82,3,0,6,0.17
2013-7-8,80,73,66,74,71,65,99,94,76,29.98,29.82,2,0,7,0.71
2013-7-9,74,69,65,70,67,65,98,93,84,30.02,29.97,5,0,7,0.00
2013-7-10,73,68,64,72,68,64,99,98,94,29.99,29.70,3,0,7,0.41
2013-7-11,80,72,64,73,68,60,100,88,63,29.88,29.66,6,0,9,0.00
2013-7-12,80,68,58,68,61,58,98,81,56,30.13,29.88,4,0,10,0.00
2013-7-13,77,68,58,70,64,58,100,88,68,30.23,30.13,3,0,7,0.03
2013-7-14,87,75,64,75,70,64,100,84,57,30.22,30.12,4,0,8,0.00
2013-7-15,90,77,66,74,69,65,98,80,46,30.12,30.02,5,0,8,0.00
2013-7-16,88,77,66,72,68,64,97,76,54,30.08,30.04,8,1,11,0.00
2013-7-17,90,78,65,75,70,65,99,78,50,30.09,29.87,8,1,9,0.01
2013-7-18,89,78,68,77,72,68,99,84,51,29.92,29.84,2,0,9,0.79
2013-7-19,91,80,69,77,72,69,99,80,53,29.85,29.58,9,1,20,0.11
2013-7-20,85,76,66,72,69,65,96,79,59,29.71,29.55,7,1,14,0.02
2013-7-21,81,72,64,68,64,60,97,79,57,29.91,29.72,3,0,6,0.00
2013-7-22,74,68,63,70,66,62,98,93,84,29.95,29.83,4,0,7,0.60
2013-7-23,76,66,62,70,65,62,99,95,78,29.82,29.46,2,0,8,2.11
2013-7-24,76,67,54,71,62,47,100,83,62,29.91,29.50,6,1,14,0.01
2013-7-25,71,61,48,62,54,47,96,80,60,30.02,29.90,5,0,7,0.00
2013-7-26,74,66,60,66,62,59,97,87,69,30.02,29.86,6,1,12,0.24
2013-7-27,82,70,58,68,61,57,96,76,44,29.95,29.89,5,0,8,0.00
2013-7-28,79,68,57,71,64,56,99,89,67,29.93,29.88,6,0,12,0.10
2013-7-29,80,68,63,70,65,62,99,93,61,29.96,29.86,6,0,12,0.00
2013-7-30,78,67,58,62,58,54,97,76,45,30.01,29.95,8,1,11,0.01
2013-7-31,80,67,55,66,59,54,98,77,42,30.06,29.94,6,0,6,0.00
2013-8-1,78,66,57,66,62,56,99,89,59,29.96,29.79,6,1,13,0.53
2013-8-2,79,69,60,68,62,57,99,81,48,29.78,29.69,9,0,11,0.04
2013-8-3,77,65,57,64,58,55,98,81,52,29.76,29.67,9,1,14,0.02
2013-8-4,73,62,54,62,56,53,98,82,58,29.81,29.71,7,1,17,0.10
2013-8-5,72,60,49,53,48,38,93,68,31,29.97,29.81,9,1,17,0.00
2013-8-6,76,61,46,60,53,45,98,77,49,30.07,29.97,4,0,7,0.00
2013-8-7,76,63,50,61,56,49,99,81,52,30.09,30.00,7,1,13,0.01
2013-8-8,80,69,61,71,66,60,97,88,71,30.02,29.89,4,0,12,0.00
2013-8-9,76,71,65,73,69,65,98,96,84,29.91,29.64,6,0,11,0.59
2013-8-10,76,69,55,67,59,51,99,73,42,29.93,29.68,13,1,18,0.01
2013-8-11,77,64,50,59,54,49,97,74,45,29.99,29.91,5,1,10,0.00
2013-8-12,79,66,54,62,57,54,98,78,51,29.94,29.82,4,0,10,0.01
2013-8-13,68,63,56,67,62,55,99,97,91,29.83,29.60,1,0,4,1.04
2013-8-14,70,63,56,65,56,51,99,80,58,29.85,29.57,11,1,21,0.01
2013-8-15,73,61,50,57,53,48,96,77,49,30.02,29.86,7,1,12,0.00
2013-8-16,76,62,49,62,55,48,99,79,50,30.11,30.01,5,0,12,0.00
2013-8-17,78,64,53,62,57,52,99,79,48,30.19,30.11,3,0,7,0.01
2013-8-18,76,64,53,65,59,52,99,84,58,30.19,29.99,4,0,7,0.00
2013-8-19,81,68,57,65,60,56,98,79,47,29.99,29.85,5,1,11,0.01
2013-8-20,83,70,59,67,62,58,98,78,47,30.00,29.90,4,0,9,0.00
2013-8-21,85,71,58,69,63,58,99,80,46,30.05,29.92,5,0,10,0.00
2013-8-22,85,73,60,71,65,60,98,79,48,29.93,29.72,7,1,11,0.03
2013-8-23,76,68,54,67,57,49,95,70,40,30.06,29.74,10,1,13,0.00
2013-8-24,78,61,46,57,51,45,98,75,36,30.24,30.06,3,0,6,0.00
2013-8-25,79,63,48,60,54,47,100,76,46,30.27,30.07,6,0,9,0.01
2013-8-26,78,69,61,69,65,58,98,87,71,30.08,29.78,6,1,11,0.16
2013-8-27,84,73,64,72,68,64,99,86,58,29.81,29.75,4,0,5,0.00
2013-8-28,83,70,63,73,67,62,99,90,64,29.92,29.76,7,0,11,2.52
2013-8-29,67,64,61,65,63,60,99,97,90,30.00,29.88,4,0,7,0.03
2013-8-30,84,70,60,70,65,60,99,86,59,29.95,29.71,3,0,10,0.00
2013-8-31,78,71,66,74,69,65,98,93,85,29.73,29.65,5,0,9,0.06
2013-9-1,82,74,67,74,70,66,99,87,70,29.78,29.69,3,0,7,0.11
2013-9-2,74,70,67,72,69,66,99,96,88,29.78,29.62,3,0,22,0.77
2013-9-3,74,67,61,68,64,58,99,89,69,29.71,29.61,6,0,7,0.01
2013-9-4,77,67,57,62,58,54,97,77,47,29.81,29.70,8,1,11,0.00
2013-9-5,66,59,45,59,50,40,97,74,39,30.06,29.76,5,1,13,0.02
2013-9-6,67,53,40,51,44,39,96,77,45,30.16,29.99,6,1,11,0.00
2013-9-7,71,59,46,57,51,45,97,78,51,29.99,29.75,6,1,12,0.02
2013-9-8,63,58,47,58,49,40,92,72,50,30.00,29.65,11,2,30,0.00
2013-9-9,70,54,40,53,46,39,97,77,41,30.14,30.00,7,1,11,0.00
2013-9-10,50,2,49,49,-94,-100,96,4,95,30.03,29.93,0,-957,0,0.00
2013-9-11,-200,0,200,-100,-100,-100,0,0,100,29.98,29.83,0,-999,0,0.00
2013-9-12,-200,0,200,-100,-100,-100,0,0,100,29.85,29.59,0,-999,0,0.00
2013-9-13,64,22,56,59,-43,-100,91,31,80,29.69,29.52,3,-635,16,0.00
2013-9-14,62,57,50,54,52,49,96,84,73,29.95,29.68,11,1,13,0.00
2013-9-24,62,52,47,45,42,40,79,70,52,29.88,29.76,10,2,14,0.00
2013-9-25,57,54,52,49,49,47,85,81,74,29.91,29.87,0,0,9,0.00
2013-9-26,68,54,41,53,47,40,98,80,51,30.06,29.92,2,0,6,0.00
2013-9-27,68,56,49,57,51,48,97,85,57,30.18,30.07,3,0,7,0.00
2013-9-28,69,51,44,58,49,44,99,93,63,30.25,30.18,1,0,7,0.00
2013-10-3,57,53,51,54,52,50,97,94,89,29.99,29.95,0,0,1,0.01
2013-10-4,51,51,50,50,50,50,97,97,97,29.98,29.97,0,0,0,0.00
2013-10-14,67,52,40,57,48,39,99,88,60,30.32,30.14,2,0,5,0.00
2013-10-15,63,57,51,56,54,50,98,88,74,30.19,30.10,4,0,9,0.00
2013-10-16,60,54,47,52,51,46,97,89,69,30.10,29.83,3,0,8,0.00
2013-10-17,71,56,46,57,50,46,99,82,48,29.82,29.62,10,1,12,0.01
2013-10-18,62,55,42,54,48,40,100,81,58,29.80,29.51,5,1,16,0.23
2013-10-19,65,49,36,48,42,35,98,80,49,29.87,29.65,5,0,8,0.01
2013-10-20,57,49,39,48,40,35,97,74,46,29.92,29.58,10,1,21,0.01
2013-10-21,63,47,34,47,40,33,98,80,48,30.01,29.87,6,0,12,0.01
2013-10-22,56,45,36,53,43,34,98,91,72,29.87,29.62,2,0,8,0.02
2013-10-23,53,42,34,39,35,29,98,77,43,29.70,29.50,3,0,7,0.01
2013-10-24,49,41,32,36,33,30,94,74,53,29.78,29.55,13,1,17,0.00
2013-10-25,46,36,28,37,29,26,98,79,51,30.04,29.79,11,1,17,0.01
2013-10-26,48,39,27,37,30,25,97,73,49,30.05,29.76,10,1,17,0.01
2013-10-27,53,43,29,39,34,27,92,71,49,29.95,29.69,11,1,14,0.00
2013-10-28,54,39,28,38,30,22,96,72,53,30.27,29.95,11,2,20,0.00
2013-10-29,47,33,22,28,22,17,93,69,33,30.37,30.27,4,0,8,0.00
2013-10-30,48,35,27,36,30,22,96,80,59,30.28,30.12,5,0,7,0.00
2013-10-31,51,38,29,51,38,28,99,97,93,30.17,29.67,0,0,5,0.30
2013-11-1,66,60,51,62,56,44,99,84,58,29.65,29.28,13,2,20,0.35
2013-11-2,62,49,37,47,43,36,98,81,52,29.70,29.51,4,0,9,0.10
2013-11-3,42,36,29,38,23,15,87,61,37,30.35,29.71,12,2,19,0.01
2013-11-4,42,30,22,22,19,15,89,64,37,30.64,30.35,5,0,9,0.00
2013-11-5,48,24,23,31,-17,-100,94,46,51,30.64,30.42,6,-357,9,0.00
2013-11-6,59,17,35,45,-52,-100,94,24,60,30.41,29.89,6,-662,19,0.00
2013-11-7,-200,0,200,-100,-100,-100,0,0,100,29.89,29.59,0,-999,0,0.00
2013-11-8,42,26,31,34,-12,-100,85,47,59,29.97,29.71,9,-310,18,0.01
2013-11-9,42,36,32,29,25,22,82,63,49,30.10,29.94,10,1,16,0.00
2013-11-10,43,38,33,40,35,29,97,91,77,29.93,29.64,6,0,14,0.08
2013-11-11,49,41,35,35,30,26,80,65,43,29.99,29.76,15,2,18,0.00
2013-11-12,44,19,28,36,-28,-100,86,40,58,30.09,29.77,11,-419,19,0.00
2013-11-13,32,20,21,21,-17,-100,73,42,45,30.21,30.02,8,-275,15,0.00
2013-11-14,47,35,25,30,25,20,93,69,50,30.02,29.95,9,1,13,0.00
2013-11-15,56,36,24,33,26,22,95,75,28,30.11,30.02,4,0,7,0.00
2013-11-16,59,38,29,32,28,-100,94,72,33,30.25,30.11,3,-11,7,0.00
2013-11-17,44,37,27,43,36,25,98,96,90,30.24,29.79,0,0,2,0.34
2013-11-18,60,51,43,54,43,32,99,77,48,29.78,29.42,7,1,16,0.50
2013-11-19,45,35,30,32,22,17,73,59,51,30.22,29.54,13,4,22,0.00
2013-11-20,38,30,22,19,16,14,80,57,40,30.56,30.22,8,1,15,0.00
2013-11-21,45,30,17,24,18,10,93,65,24,30.57,30.29,4,0,9,0.00
2013-11-22,38,35,31,37,33,24,97,92,74,30.29,29.73,0,0,2,0.11
2013-11-23,43,35,25,42,27,18,98,74,44,29.84,29.66,8,2,21,0.02
2013-11-24,25,19,16,18,1,-100,79,54,44,30.09,29.69,23,-46,31,0.00
2013-11-25,28,21,13,15,4,-4,65,48,32,30.28,30.10,9,1,21,0.00
2013-11-26,34,30,25,31,26,15,95,84,65,30.22,30.02,1,0,4,0.03
2013-11-27,47,39,32,47,38,29,99,95,80,30.00,29.18,14,2,27,2.15
2013-11-28,34,26,17,30,16,8,85,64,47,30.33,29.33,11,2,23,0.00
2013-11-29,27,18,12,12,10,6,90,70,43,30.69,30.34,7,1,16,0.00
2013-11-30,29,20,7,18,12,4,90,72,50,30.74,30.36,7,0,12,0.00
2013-12-1,36,31,27,30,25,18,82,78,70,30.35,30.05,2,0,3,0.00
2014-1-2,2,1,1,-2,-48,-100,84,44,84,30.05,29.94,1,-529,10,0.00